This is the latest recevied weather packets stored in our database for station/object EA7BW-10. If no packets are shown the sender has not sent any weather packets the latest 10 day(s).
| Time | Temp. | Humidity | Pressure | Rain* | Wind** | Luminosity | Snow |
|---|---|---|---|---|---|---|---|
| 1777492976 | 20.56° C | 55% | 1007.1 hPa | - | - | - | - |
| 1777491776 | 20.56° C | 55% | 1006.7 hPa | - | - | - | - |
| 1777490575 | 21.11° C | 55% | 1006.3 hPa | - | - | - | - |
| 1777489378 | 21.67° C | 54% | 1006 hPa | - | - | - | - |
| 1777488177 | 21.67° C | 54% | 1005.7 hPa | - | - | - | - |
| 1777486975 | 22.78° C | 54% | 1005.4 hPa | - | - | - | - |
| 1777485775 | 23.33° C | 53% | 1005.2 hPa | - | - | - | - |
| 1777484575 | 23.89° C | 52% | 1005.1 hPa | - | - | - | - |
| 1777483375 | 23.89° C | 53% | 1005.1 hPa | - | - | - | - |
| 1777482175 | 24.44° C | 52% | 1005 hPa | - | - | - | - |
| 1777480975 | 25.56° C | 51% | 1004.8 hPa | - | - | - | - |
| 1777479775 | 25.56° C | 51% | 1004.8 hPa | - | - | - | - |
| 1777478574 | 26.11° C | 50% | 1004.8 hPa | - | - | - | - |
| 1777477374 | 25.56° C | 51% | 1004.9 hPa | - | - | - | - |
| 1777476174 | 26.11° C | 50% | 1004.9 hPa | - | - | - | - |
| 1777474974 | 26.11° C | 49% | 1004.8 hPa | - | - | - | - |
| 1777473774 | 25° C | 51% | 1005 hPa | - | - | - | - |
| 1777472574 | 24.44° C | 52% | 1005.1 hPa | - | - | - | - |
| 1777471374 | 24.44° C | 52% | 1005.1 hPa | - | - | - | - |
| 1777470174 | 23.89° C | 53% | 1005.2 hPa | - | - | - | - |
| 1777468974 | 25° C | 52% | 1005 hPa | - | - | - | - |
| 1777467774 | 25° C | 52% | 1005 hPa | - | - | - | - |
| 1777466573 | 25° C | 53% | 1005 hPa | - | - | - | - |
| 1777465373 | 26.11° C | 51% | 1004.8 hPa | - | - | - | - |
| 1777464173 | 26.67° C | 50% | 1004.8 hPa | - | - | - | - |
* Rain since midnight (hover to see other rain measurements)
** Current wind speed in m/s (hover to see current wind gust speed)